Pagrindinis puslapis
METAR-TAF:

METAR-TAF

Oro uostai :

Itaituba, Para, Brazilija

platuma: 04-15S, ilguma: 056-00W, Aukštis: 34 m

Dabartinis oras

Ataskaita buvo paskelbta 1 valandą ir 24 minutes, ne 17:00 UTC
Vėjas 10 kt iš Rytų
Temperatūra 33°C
Drėgmė 59%
Slėgis 1009 hPa
Matomumas 10 km arba daugiau
Mažai debesys ne aukštis 2300 ft
Mažai debesys ne aukštis 2700 ft, aukštai iškilę kamuoliniai debesys.

METAR: SBIH 171700Z 10010KT 9999 FEW023 FEW027TCU 33/24 Q1009

Laikas: 15:24 (18:24 UTC)

Prognozė

Ataskaita buvo paskelbta 9 valandos ir 24 minutes, ne 09:00 UTC
Prognozė galioja nuo 17 metu 12 UTC su 17 metu 24 UTC
Vėjas kt iš Šiaurės
Matomumas 10 km arba daugiau
Mažai debesys ne aukštis 1500 ft
Tapsmas
nuo 17 metu 14 UTC su 17 metu 16 UTC
Vėjas 5 kt iš Rytų/Pietryčių
Išsisklaidę debesys ne aukštis 2000 ft
Tapsmas
nuo 17 metu 18 UTC su 17 metu 20 UTC
Mažai debesys ne aukštis 2500 ft, aukštai iškilę kamuoliniai debesys.

TAF: SBIH 170900Z 1712/1724 00000KT 9999 FEW015 TN28/1712Z TX33/1717Z BECMG 1714/1716 11005KT SCT020 BECMG 1718/1720 FWE023 FEW025TCU RMK PGY

Orai ataskaitas ir orų prognozės (METAR, TAF).

turimą stotys yra geltonos ir raudonos taškus žemėlapyje.

Perkelti pele per norėdami pamatyti stoties vardą.

Tada spustelėkite, norėdami matyti oro stebėjimo ir prognozės.

Norėdami pakeisti žemėlapį: spustelėkite ant žalios mygtukų su juodo kryžiaus žemyn,; žalią mygtuką su brūkšneliu, jei norite nutolinti; arba žalių rodyklių gretimoms žemėlapius.


METAR-TAF: